Skip Navigation Links
NOAA logo - Click to go to the NOAA homepage
NOAA's National Weather Service
Alaska Aviation Weather Unit
  NWS logo - Click to go to the NWS homepage
Left Navbar Graphic     21 AKDT = 05 GMT

   
NOAA is celebrating 200 years of science, service, and stewardship. Visit the NOAA 200th celebration Web site to learn more.
USA.gov is the U.S. Government's official Web portal to all Federal, state and local government Web resources and services.
Facebook
NWS on Facebook

Important Change Regarding the AAWU Web Presence

 

Over the last several months, the AAWU has been working to navigate its webpages to a nationally supported server. Security, as well as other needs, have necessitated the change.  In the process, we have made an effort to enhance the functionality of our website, as well as some of our products. As of June 27, 2017, aawu.arh.noaa.gov will be discontinued. The new AAWU web address is weather.gov/aawu. It is now live and will run in-parallel with the old site until it is discontinued. Please send any feedback or questions regarding the new webpages to nws.ar.aawu.webauthors@noaa.gov.  Thank you for your patience during this time of transition.
AAWU Home :: Display TAF Add Bookmark
TAF PAGS 260157Z 2602/2624 13006KT P6SM -SHRA SCT035 OVC060
     FM260900 VRB03KT P6SM FEW005 BKN060
     FM261200 00000KT P6SM BKN005 BKN060
      AMD LTD TO CLD VIS AND WIND=
SPECI PAGS 252319Z AUTO 13004KT 10SM -RA SCT009 OVC070 14/12 A2999 RMK
     AO2 RAB12 P0000=

METAR PAGS 252356Z AUTO 14004KT 10SM -RA FEW035 OVC070 14/12 A2998 RMK
     AO2 RAB12 SLP154 P0000 60004 T01390117 10144 20117 50000=

METAR PAGS 260056Z AUTO 13004KT 10SM -RA OVC065 14/12 A2998 RMK AO2
 RAE05B54 SLP152 P0000 T01390117=

METAR PAGS 260156Z AUTO 15003KT 10SM OVC070 14/12 A2998 RMK AO2 RAE19
     SLP151 P0000 T01390117=

METAR PAGS 260256Z AUTO 24003KT 10SM BKN055 OVC075 14/11 A2998 RMK AO2
     SLP151 60000 T01390111 55003=

METAR PAGS 260356Z AUTO 21005KT 10SM BKN055 OVC080 13/10 A2997 RMK AO2
     SLP150 T01280100=

METAR PAGS 260456Z AUTO 20004KT 10SM OVC060 13/10 A2997 RMK AO2 SLP150
     T01330100=


NOAA's National Weather Service
Alaska Aviation Weather Unit
6930 Sand Lake Road
Anchorage, AK 99502-1845
Disclaimer
Credits
Glossary
Privacy Policy
About Us
Career Opportunities
Contact AAWU Internet Services Site last modified: April, 17th 2012